Private Wetterstation Nrnberg - Katzwang
Wetterdaten: Mai 2010
Datum Temp. A. Feuchte A. Luftdruck Regen Wind Richtung Taupunkt Windchill Windben
01.05.2010 14,9 C 76 % 1009 hPa 0,0 l/m 3,0 km/h W-NW 10,4 C 14,5 C 5,8 km/h
02.05.2010 13,9 C 69 % 1014 hPa 6,1 l/m 2,0 km/h NO 7,7 C 13,7 C 4,8 km/h
03.05.2010 14,6 C 58 % 1022 hPa 0,0 l/m 5,2 km/h W-NW 6,3 C 13,2 C 8,1 km/h
04.05.2010 13,0 C 60 % 1024 hPa 2,0 l/m 6,2 km/h N-NO 5,1 C 12,0 C 9,1 km/h
05.05.2010 14,8 C 55 % 1022 hPa 0,0 l/m 10,4 km/h N-NO 4,9 C 13,6 C 14,0 km/h
06.05.2010 18,7 C 50 % 1012 hPa 0,0 l/m 4,8 km/h NO 7,1 C 18,6 C 7,7 km/h
07.05.2010 17,7 C 59 % 1010 hPa 1,8 l/m 12,7 km/h W-NW 9,2 C 15,7 C 22,7 km/h
08.05.2010 11,1 C 74 % 1008 hPa 3,5 l/m 2,0 km/h O-NO 6,3 C 10,9 C 4,8 km/h
09.05.2010 12,8 C 78 % 1006 hPa 0,5 l/m 4,4 km/h W-NW 8,6 C 12,3 C 5,9 km/h
10.05.2010 12,8 C 84 % 1005 hPa 0,5 l/m 1,4 km/h N-NO 10,1 C 12,8 C 2,4 km/h
11.05.2010 15,9 C 74 % 1002 hPa 18,6 l/m 14,0 km/h O 11,2 C 12,9 C 26,0 km/h
12.05.2010 12,8 C 75 % 1007 hPa 1,0 l/m 4,8 km/h W-NW 8,2 C 11,6 C 7,0 km/h
13.05.2010 9,8 C 85 % 1007 hPa 3,1 l/m 1,7 km/h N-NO 7,3 C 9,7 C 2,7 km/h
14.05.2010 8,4 C 84 % 1008 hPa 0,5 l/m 2,9 km/h N-NO 5,8 C 7,6 C 3,9 km/h
15.05.2010 8,4 C 78 % 1008 hPa 0,0 l/m 4,1 km/h N-NO 4,7 C 7,4 C 5,1 km/h
16.05.2010 11,4 C 63 % 1013 hPa 0,0 l/m 0,0 km/h W-NW 4,5 C 11,4 C 1,0 km/h
17.05.2010 11,8 C 74 % 1019 hPa 0,5 l/m 0,9 km/h W-NW 6,9 C 11,8 C 1,9 km/h
18.05.2010 8,7 C 80 % 1022 hPa 2,6 l/m 6,3 km/h W-NW 5,4 C 8,4 C 11,1 km/h
19.05.2010 7,8 C 90 % 1021 hPa 6,2 l/m 2,1 km/h W-NW 6,2 C 7,8 C 3,1 km/h
20.05.2010 10,4 C 92 % 1024 hPa 1,0 l/m 3,1 km/h W-NW 9,1 C 10,0 C 4,1 km/h
21.05.2010 13,5 C 82 % 1025 hPa 0,0 l/m 2,6 km/h W-NW 10,4 C 12,9 C 3,6 km/h
22.05.2010 16,4 C 66 % 1021 hPa 0,0 l/m 2,4 km/h W-NW 9,5 C 16,1 C 3,4 km/h
23.05.2010 18,0 C 66 % 1018 hPa 0,0 l/m 5,0 km/h N-NO 11,2 C 17,5 C 6,0 km/h
24.05.2010 20,4 C 60 % 1011 hPa 0,0 l/m 4,1 km/h W-NW 11,6 C 20,1 C 5,1 km/h
25.05.2010 19,9 C 68 % 1008 hPa 0,0 l/m 4,3 km/h N-NW 13,5 C 19,6 C 5,3 km/h
26.05.2010 16,9 C 86 % 1006 hPa 9,8 l/m 6,8 km/h N-NO 14,5 C 16,0 C 7,8 km/h
27.05.2010 16,5 C 78 % 1008 hPa 1,6 l/m 3,1 km/h W-NW 12,5 C 16,3 C 4,1 km/h
28.05.2010 16,5 C 76 % 1012 hPa 0,0 l/m 4,6 km/h W-NW 12,1 C 15,8 C 5,6 km/h
29.05.2010 16,3 C 73 % 1015 hPa 1,0 l/m 1,2 km/h O-NO 11,0 C 16,3 C 2,2 km/h
30.05.2010 14,9 C 83 % 1006 hPa 15,5 l/m 7,7 km/h W-NW 12,0 C 14,2 C 8,7 km/h
31.05.2010 11,1 C 81 % 1010 hPa 4,1 l/m 3,6 km/h W-NW 7,9 C 10,8 C 4,6 km/h
Min-Datum 05.05.10 06.05.10 11.05.10 19 Tage 01.05.10 - 08.05.10 08.05.10 09.05.10
Min-Zeit 06:40 14:00 20:40 - 00:00 - 02:20 02:10 12:40
Minimum 4,1 C 24 % 998 hPa - 0,0 km/h - -2,5 C -5,0 C 1,0 km/h
Max-Datum 06.05.10 20.05.10 04.05.10 11.05.10 07.05.10 - 26.05.10 06.05.10 07.05.10
Max-Zeit 15:20 08:00 23:20 21:50 10:20 - 13:20 15:40 12:30
Maximum 28,3 C 94 % 1026 hPa 18,6 l/m 44,3 km/h
W-NW
- 16,2 C 28,1 C 70,5 km/h
W-NW
Durchschnitt 13,9 C 73 % 1013 hPa #80,3 l/m 4,4 km/h W-NW 8,7 C 13,3 C 6,7 km/h

Durchschnitt Minimum Temp.8,8 C
Durchschnitt Maximum Temp.18,8 C